Airfield :







YOU CAN JOIN US ON...

 
LOGIN :

Register | Disclaimer

   EN    FR    IT 

 









Legend :    VFR   Marginal VFR   IFR   Intensive IFR   Very Intensive IFR
Visi :
Ceiling :
>= 8 km
>= 3000ft
5 to 8 km
1000 to 3000 ft
1500m to 5 km
500 to 1000 ft
800 to 1500m
200 to 500 ft
< 800m
< 200 ft
Symbols :   Thunderstorms  Fog  Heavy snow  Heavy precipitations  Wind > 20 kt






- Airport Elevation : 244 ft
- IATA code : YQB


CYQB - Quebec - Jean Lesage Int.

CURRENT METAR :
  • 171800Z 21013KT 30SM FEW050TCU BKN250 24/04 A3017 RMK TCU2CI4 CB ASOCTD NE SLP220 DENSITY ALT 1100FT

EXPIRED METARs :
  • 171700Z 22012KT 30SM FEW060 SCT250 23/07 A3019 RMK CU2CI1 TCU ASOCTD SLP227 DENSITY ALT 900FT

TAF TAF CYQB
Valid from the 17 at 18:00 until the 18 at 18:00 UTC


171739Z 1718/1818 22012KT P6SM FEW060 SCT240
PROB30 1718/1724 VRB15G25KT 2SM TSRA BR BKN060CB
FM180400 26010KT P6SM BKN080 BKN160
FM180800 29010KT P6SM -SHRA BKN050
FM181200 28008KT P6SM BKN030
FM181400 28008KT P6SM SCT040 RMK NXT FCST BY 180000Z
ATIS : ENG : +1 418-871-6893 FRA : +1 418-871-6895
CZUL FIR / North America



MET'MAP, your aeronautical weather chart ! - Copyright ORBIFLY December 2007 - Disclaimer

ORBIFLY MET'MAP TEAM :

Programming & Development : Alexandra Zaïnal
Concept & original design : Baudouin d'Aumeries
Assistance for programming : Marc-Olivier Méhu
Technical & hardware support : Manuel Goepfert

Contact : metmap@orbifly.com




SOURCES & CREDITS :

   NOAA